Time;durP1;ratioP1;P1;durP2;ratioP2;P2;SDS_P1;SDS_P2;PMS_P1;PMS_P2;Temp;Humidity;BMP_temperature;BMP_pressure;BME280_temperature;BME280_humidity;BME280_pressure;Samples;Min_cycle;Max_cycle;Signal;HPM_P1;HPM_P2
2024/01/21 00:02:01;;;;;;;3.07;1.33;;;;;;;;;;5059699;28;20063;-62
2024/01/21 00:04:26;;;;;;;3.65;1.50;;;;;;;;;;5058905;28;20322;-62
2024/01/21 00:06:51;;;;;;;3.92;1.38;;;;;;;;;;5059515;28;20030;-62
2024/01/21 00:09:17;;;;;;;4.05;1.38;;;;;;;;;;5058665;28;20070;-62
2024/01/21 00:11:42;;;;;;;4.10;1.40;;;;;;;;;;5060380;28;20956;-64
2024/01/21 00:14:07;;;;;;;2.70;1.20;;;;;;;;;;5059052;28;20028;-62
2024/01/21 00:16:32;;;;;;;3.05;1.10;;;;;;;;;;5059470;28;20031;-65
2024/01/21 00:18:58;;;;;;;3.70;1.65;;;;;;;;;;5053651;28;20012;-64
2024/01/21 00:21:23;;;;;;;3.63;1.55;;;;;;;;;;5056071;28;20052;-64
2024/01/21 00:23:48;;;;;;;5.80;1.40;;;;;;;;;;5057172;28;20896;-64
2024/01/21 00:26:13;;;;;;;2.93;0.97;;;;;;;;;;5057210;28;20805;-62
2024/01/21 00:28:39;;;;;;;3.72;1.65;;;;;;;;;;5053793;28;21202;-63
2024/01/21 00:31:04;;;;;;;3.60;1.17;;;;;;;;;;5044949;28;20858;-63
2024/01/21 00:33:29;;;;;;;3.47;1.05;;;;;;;;;;5057806;28;20508;-63
2024/01/21 00:35:54;;;;;;;2.97;1.10;;;;;;;;;;5056602;28;20043;-63
2024/01/21 00:38:20;;;;;;;3.03;1.20;;;;;;;;;;5056013;28;20837;-63
2024/01/21 00:40:45;;;;;;;2.03;0.68;;;;;;;;;;5058080;28;20143;-64
2024/01/21 00:43:10;;;;;;;6.20;1.30;;;;;;;;;;5058563;28;20031;-63
2024/01/21 00:45:35;;;;;;;3.97;1.23;;;;;;;;;;5061227;28;20024;-64
2024/01/21 00:48:01;;;;;;;2.65;1.17;;;;;;;;;;5058471;28;20115;-63
2024/01/21 00:50:26;;;;;;;2.65;1.35;;;;;;;;;;5031888;28;20076;-63
2024/01/21 00:52:51;;;;;;;3.80;1.10;;;;;;;;;;5056456;28;20031;-65
2024/01/21 00:55:17;;;;;;;2.80;0.93;;;;;;;;;;5053854;28;20953;-65
2024/01/21 00:57:42;;;;;;;2.80;1.15;;;;;;;;;;5052145;28;20020;-65
2024/01/21 01:00:07;;;;;;;3.22;1.25;;;;;;;;;;5042580;28;20020;-65
2024/01/21 01:02:33;;;;;;;2.00;0.90;;;;;;;;;;5057117;28;20859;-65
2024/01/21 01:04:58;;;;;;;4.10;1.25;;;;;;;;;;5057303;28;20090;-64
2024/01/21 01:07:24;;;;;;;1.85;1.00;;;;;;;;;;5057568;28;20028;-65
2024/01/21 01:09:49;;;;;;;4.03;1.25;;;;;;;;;;5054071;28;20143;-65
2024/01/21 01:12:14;;;;;;;2.13;0.82;;;;;;;;;;5055450;28;20050;-65
2024/01/21 01:14:42;;;;;;;2.47;0.85;;;;;;;;;;5052099;28;20028;-64
2024/01/21 01:17:08;;;;;;;3.55;1.20;;;;;;;;;;5058972;28;20024;-65
2024/01/21 01:19:33;;;;;;;2.40;1.08;;;;;;;;;;5057179;28;20089;-65
2024/01/21 01:21:58;;;;;;;2.47;1.17;;;;;;;;;;5055436;28;20039;-64
2024/01/21 01:24:24;;;;;;;2.20;1.00;;;;;;;;;;5059003;28;20059;-64
2024/01/21 01:26:49;;;;;;;2.35;1.00;;;;;;;;;;5060946;28;20031;-64
2024/01/21 01:29:14;;;;;;;2.60;1.27;;;;;;;;;;5056486;28;20040;-64
2024/01/21 01:31:39;;;;;;;3.38;1.52;;;;;;;;;;5056081;28;20282;-64
2024/01/21 01:34:05;;;;;;;3.38;1.23;;;;;;;;;;5059178;28;20960;-64
2024/01/21 01:36:30;;;;;;;3.57;1.37;;;;;;;;;;5056803;28;20024;-64
2024/01/21 01:38:55;;;;;;;3.20;1.50;;;;;;;;;;5056593;28;20282;-64
2024/01/21 01:41:20;;;;;;;4.43;1.10;;;;;;;;;;5057328;28;20118;-64
2024/01/21 01:43:46;;;;;;;2.00;1.00;;;;;;;;;;5058340;28;20077;-64
2024/01/21 01:46:11;;;;;;;4.45;1.45;;;;;;;;;;5062432;28;20143;-64
2024/01/21 01:48:37;;;;;;;4.68;1.50;;;;;;;;;;5055643;28;20032;-64
2024/01/21 01:51:03;;;;;;;3.67;1.30;;;;;;;;;;5054195;28;20036;-64
2024/01/21 01:53:29;;;;;;;3.05;1.33;;;;;;;;;;5048677;28;20035;-64
2024/01/21 01:55:54;;;;;;;3.53;1.67;;;;;;;;;;5059876;28;20031;-64
2024/01/21 01:58:23;;;;;;;4.10;1.20;;;;;;;;;;5056315;28;20032;-64
2024/01/21 02:00:49;;;;;;;3.67;1.48;;;;;;;;;;5055922;28;20016;-63
2024/01/21 02:03:14;;;;;;;3.28;1.58;;;;;;;;;;5054989;28;20057;-63
2024/01/21 02:05:39;;;;;;;3.65;1.33;;;;;;;;;;5059423;28;20127;-63
2024/01/21 02:08:05;;;;;;;2.78;1.30;;;;;;;;;;5057540;28;20042;-63
2024/01/21 02:10:30;;;;;;;5.00;1.70;;;;;;;;;;5054745;28;20084;-63
2024/01/21 02:12:56;;;;;;;2.47;1.30;;;;;;;;;;5056046;28;20798;-64
2024/01/21 02:15:21;;;;;;;3.45;1.42;;;;;;;;;;5054271;28;20063;-63
2024/01/21 02:17:46;;;;;;;5.25;1.88;;;;;;;;;;5057420;28;20142;-63
2024/01/21 02:20:12;;;;;;;3.10;1.27;;;;;;;;;;5056947;28;20040;-64
2024/01/21 02:22:38;;;;;;;3.53;1.52;;;;;;;;;;5057198;28;20024;-63
2024/01/21 02:25:04;;;;;;;2.33;1.20;;;;;;;;;;5057627;28;20036;-64
2024/01/21 02:27:29;;;;;;;3.28;1.55;;;;;;;;;;5053777;28;20853;-64
2024/01/21 02:29:54;;;;;;;3.70;1.33;;;;;;;;;;5054717;28;20035;-64
2024/01/21 02:32:19;;;;;;;4.20;1.80;;;;;;;;;;5056518;28;20020;-64
2024/01/21 02:34:44;;;;;;;2.92;1.45;;;;;;;;;;5058938;28;20809;-63
2024/01/21 02:37:10;;;;;;;3.25;1.50;;;;;;;;;;5056848;28;20042;-64
2024/01/21 02:39:35;;;;;;;5.00;1.50;;;;;;;;;;5057293;28;20028;-64
2024/01/21 02:42:00;;;;;;;4.07;2.03;;;;;;;;;;5055900;28;20904;-64
2024/01/21 02:44:25;;;;;;;5.18;2.30;;;;;;;;;;5056883;28;20032;-64
2024/01/21 02:46:51;;;;;;;3.60;1.70;;;;;;;;;;5059505;28;20894;-64
2024/01/21 02:49:16;;;;;;;5.43;1.80;;;;;;;;;;5058476;28;21119;-63
2024/01/21 02:51:41;;;;;;;4.95;1.70;;;;;;;;;;5059656;28;20274;-64
2024/01/21 02:54:07;;;;;;;3.85;1.98;;;;;;;;;;5056837;28;20518;-64
2024/01/21 02:56:32;;;;;;;3.45;1.50;;;;;;;;;;5059204;28;20064;-64
2024/01/21 02:58:57;;;;;;;4.45;1.80;;;;;;;;;;5060105;28;20026;-64
2024/01/21 03:01:22;;;;;;;5.25;2.17;;;;;;;;;;5062914;28;20032;-64
2024/01/21 03:03:48;;;;;;;4.90;1.65;;;;;;;;;;5063570;28;20039;-64
2024/01/21 03:06:13;;;;;;;4.63;2.38;;;;;;;;;;5060498;28;20020;-64
2024/01/21 03:08:38;;;;;;;4.05;1.77;;;;;;;;;;5058943;28;20165;-64
2024/01/21 03:11:04;;;;;;;5.28;2.15;;;;;;;;;;5057902;28;20032;-64
2024/01/21 03:13:29;;;;;;;5.13;2.05;;;;;;;;;;5058552;28;20089;-64
2024/01/21 03:15:55;;;;;;;3.72;2.35;;;;;;;;;;5059552;28;20036;-64
2024/01/21 03:18:20;;;;;;;4.63;2.30;;;;;;;;;;5052186;28;20024;-63
2024/01/21 03:20:46;;;;;;;7.40;2.40;;;;;;;;;;5057788;28;20031;-65
2024/01/21 03:23:11;;;;;;;5.53;2.17;;;;;;;;;;5060632;28;20866;-65
2024/01/21 03:25:36;;;;;;;3.90;2.20;;;;;;;;;;5061734;28;20056;-65
2024/01/21 03:28:03;;;;;;;4.57;1.88;;;;;;;;;;5062621;28;20039;-65
2024/01/21 03:30:28;;;;;;;5.63;2.33;;;;;;;;;;5061482;28;20028;-65
2024/01/21 03:32:53;;;;;;;3.10;1.67;;;;;;;;;;5058388;28;20019;-65
2024/01/21 03:35:18;;;;;;;6.30;3.03;;;;;;;;;;5060257;28;20035;-64
2024/01/21 03:37:44;;;;;;;4.45;2.20;;;;;;;;;;5049485;28;20029;-64
2024/01/21 03:40:09;;;;;;;3.33;2.00;;;;;;;;;;5056071;28;20067;-64
2024/01/21 03:42:34;;;;;;;3.92;2.20;;;;;;;;;;5056923;28;20949;-64
2024/01/21 03:44:59;;;;;;;4.93;2.22;;;;;;;;;;5059407;28;20032;-64
2024/01/21 03:47:25;;;;;;;5.80;2.83;;;;;;;;;;5052523;28;20478;-64
2024/01/21 03:49:51;;;;;;;5.90;2.28;;;;;;;;;;5060836;28;20036;-64
2024/01/21 03:52:16;;;;;;;5.55;2.90;;;;;;;;;;5059003;28;20040;-64
2024/01/21 03:54:41;;;;;;;4.28;2.38;;;;;;;;;;5058946;28;20574;-64
2024/01/21 03:57:07;;;;;;;4.22;2.08;;;;;;;;;;5054979;28;20032;-64
2024/01/21 03:59:32;;;;;;;4.88;2.65;;;;;;;;;;5055207;28;20027;-64
2024/01/21 04:01:57;;;;;;;6.80;2.35;;;;;;;;;;5062537;28;20960;-63
2024/01/21 04:04:22;;;;;;;7.90;2.90;;;;;;;;;;5062447;28;20070;-63
2024/01/21 04:06:47;;;;;;;6.90;2.83;;;;;;;;;;5056560;28;20305;-63
2024/01/21 04:09:13;;;;;;;5.18;2.75;;;;;;;;;;5053847;28;20031;-63
2024/01/21 04:11:45;;;;;;;5.03;2.47;;;;;;;;;;5052911;28;20086;-63
2024/01/21 04:14:10;;;;;;;5.15;2.55;;;;;;;;;;5049188;28;20146;-63
2024/01/21 04:16:35;;;;;;;6.72;2.78;;;;;;;;;;5060616;28;20028;-63
2024/01/21 04:19:01;;;;;;;6.45;3.13;;;;;;;;;;5060070;28;20077;-64
2024/01/21 04:21:26;;;;;;;6.90;2.77;;;;;;;;;;5062934;28;20024;-62
2024/01/21 04:23:51;;;;;;;4.87;2.67;;;;;;;;;;5060712;28;20305;-65
2024/01/21 04:26:16;;;;;;;5.60;2.97;;;;;;;;;;5062440;28;20281;-64
2024/01/21 04:28:41;;;;;;;8.02;3.47;;;;;;;;;;5060505;28;20122;-64
2024/01/21 04:31:07;;;;;;;5.55;2.80;;;;;;;;;;5060438;28;20146;-64
2024/01/21 04:33:32;;;;;;;6.13;3.15;;;;;;;;;;5059835;28;20032;-64
2024/01/21 04:35:57;;;;;;;4.65;2.50;;;;;;;;;;5059757;28;20224;-64
2024/01/21 04:38:23;;;;;;;6.00;3.30;;;;;;;;;;5057698;28;20040;-64
2024/01/21 04:40:49;;;;;;;6.38;3.17;;;;;;;;;;5059627;28;20747;-64
2024/01/21 04:43:14;;;;;;;5.13;3.13;;;;;;;;;;5059359;28;20024;-64
2024/01/21 04:45:39;;;;;;;6.53;3.15;;;;;;;;;;5059365;28;20847;-64
2024/01/21 04:48:05;;;;;;;6.30;3.67;;;;;;;;;;5059226;28;20036;-64
2024/01/21 04:50:30;;;;;;;6.25;3.33;;;;;;;;;;5058547;28;20871;-64
2024/01/21 04:52:55;;;;;;;6.67;3.10;;;;;;;;;;5058090;28;20862;-64
2024/01/21 04:55:21;;;;;;;6.72;3.63;;;;;;;;;;5059750;28;20274;-64
2024/01/21 04:57:46;;;;;;;7.82;3.53;;;;;;;;;;5059280;28;20060;-64
2024/01/21 05:00:11;;;;;;;6.90;3.80;;;;;;;;;;5059651;28;20064;-64
2024/01/21 05:02:37;;;;;;;7.32;3.00;;;;;;;;;;5058831;28;20918;-64
2024/01/21 05:05:02;;;;;;;7.13;4.10;;;;;;;;;;5058370;28;20042;-63
2024/01/21 05:07:27;;;;;;;7.00;3.80;;;;;;;;;;5058651;28;20036;-63
2024/01/21 05:09:52;;;;;;;9.30;4.32;;;;;;;;;;5054724;28;20044;-63
2024/01/21 05:12:18;;;;;;;7.20;3.58;;;;;;;;;;5062306;28;20802;-63
2024/01/21 05:14:43;;;;;;;7.60;4.25;;;;;;;;;;5056570;28;20838;-63
2024/01/21 05:17:08;;;;;;;8.38;4.38;;;;;;;;;;5054791;28;20050;-63
2024/01/21 05:19:33;;;;;;;7.22;3.85;;;;;;;;;;5056581;28;20134;-63
2024/01/21 05:21:59;;;;;;;8.18;4.05;;;;;;;;;;5057528;28;20901;-62
2024/01/21 05:24:24;;;;;;;8.93;3.90;;;;;;;;;;5056048;28;20766;-63
2024/01/21 05:26:49;;;;;;;8.43;3.97;;;;;;;;;;5061411;28;20281;-63
2024/01/21 05:29:14;;;;;;;7.50;4.20;;;;;;;;;;5053265;28;20158;-63
2024/01/21 05:31:40;;;;;;;8.90;3.92;;;;;;;;;;5058049;28;20024;-63
2024/01/21 05:34:05;;;;;;;5.80;3.35;;;;;;;;;;5058165;28;20119;-63
2024/01/21 05:36:30;;;;;;;8.68;4.30;;;;;;;;;;5054769;28;20084;-64
2024/01/21 05:38:55;;;;;;;9.02;4.20;;;;;;;;;;5056674;28;20016;-63
2024/01/21 05:41:21;;;;;;;6.75;3.35;;;;;;;;;;5056213;28;20031;-63
2024/01/21 05:43:46;;;;;;;5.88;3.60;;;;;;;;;;5058762;28;20036;-63
2024/01/21 05:46:11;;;;;;;8.93;3.97;;;;;;;;;;5047599;28;20102;-63
2024/01/21 05:48:36;;;;;;;7.00;3.90;;;;;;;;;;5048297;28;20939;-63
2024/01/21 05:51:02;;;;;;;6.18;3.72;;;;;;;;;;5056268;28;20901;-63
2024/01/21 05:53:27;;;;;;;7.05;4.32;;;;;;;;;;5056474;28;20024;-63
2024/01/21 05:55:53;;;;;;;6.28;3.67;;;;;;;;;;5057011;28;20769;-63
2024/01/21 05:58:18;;;;;;;6.82;3.97;;;;;;;;;;5054398;28;20028;-63
2024/01/21 06:00:43;;;;;;;7.82;3.95;;;;;;;;;;5059649;28;20106;-63
2024/01/21 06:03:08;;;;;;;7.53;4.50;;;;;;;;;;5054901;28;20028;-63
2024/01/21 06:05:34;;;;;;;8.32;4.03;;;;;;;;;;5053579;28;20020;-63
2024/01/21 06:07:59;;;;;;;6.30;3.60;;;;;;;;;;5059047;28;20089;-63
2024/01/21 06:10:24;;;;;;;7.72;3.60;;;;;;;;;;5061498;28;20312;-63
2024/01/21 06:12:49;;;;;;;8.40;3.93;;;;;;;;;;5061362;28;20774;-64
2024/01/21 06:15:14;;;;;;;6.18;3.90;;;;;;;;;;5061489;28;20854;-64
2024/01/21 06:17:40;;;;;;;7.18;3.67;;;;;;;;;;5064123;28;20016;-63
2024/01/21 06:20:08;;;;;;;7.55;3.30;;;;;;;;;;5059927;28;20436;-63
2024/01/21 06:22:34;;;;;;;6.20;3.88;;;;;;;;;;5061277;28;20035;-63
2024/01/21 06:24:59;;;;;;;7.10;3.88;;;;;;;;;;5062988;28;20008;-64
2024/01/21 06:27:25;;;;;;;7.60;4.45;;;;;;;;;;5059240;28;20121;-63
2024/01/21 06:29:50;;;;;;;7.28;3.95;;;;;;;;;;5052970;28;20943;-64
2024/01/21 06:32:15;;;;;;;6.90;3.58;;;;;;;;;;5057596;28;20115;-63
2024/01/21 06:34:40;;;;;;;8.07;4.07;;;;;;;;;;5070256;28;20024;-63
2024/01/21 06:37:05;;;;;;;5.57;3.60;;;;;;;;;;5060945;28;20035;-64
2024/01/21 06:39:31;;;;;;;6.22;3.45;;;;;;;;;;5058951;28;20274;-64
2024/01/21 06:41:56;;;;;;;7.05;3.95;;;;;;;;;;5051309;28;20032;-64
2024/01/21 06:44:21;;;;;;;10.18;3.67;;;;;;;;;;5064251;28;20020;-65
2024/01/21 06:46:46;;;;;;;8.13;3.47;;;;;;;;;;5069386;28;20020;-64
2024/01/21 06:49:12;;;;;;;6.88;3.63;;;;;;;;;;5068591;28;20043;-64
2024/01/21 06:51:46;;;;;;;8.25;3.88;;;;;;;;;;5062542;28;20024;-64
2024/01/21 06:54:11;;;;;;;8.52;3.50;;;;;;;;;;5058726;28;20833;-63
2024/01/21 06:56:37;;;;;;;8.57;3.78;;;;;;;;;;5061963;28;20023;-64
2024/01/21 06:59:03;;;;;;;7.10;3.75;;;;;;;;;;5073663;28;20466;-64
2024/01/21 07:01:28;;;;;;;8.77;4.28;;;;;;;;;;5063873;28;20024;-65
2024/01/21 07:03:53;;;;;;;6.20;3.80;;;;;;;;;;5066912;28;20066;-63
2024/01/21 07:06:19;;;;;;;8.23;4.22;;;;;;;;;;5066481;28;20121;-64
2024/01/21 07:08:44;;;;;;;7.18;3.78;;;;;;;;;;5058517;28;20237;-63
2024/01/21 07:11:09;;;;;;;8.25;3.63;;;;;;;;;;5063054;28;20031;-63
2024/01/21 07:13:35;;;;;;;6.20;3.67;;;;;;;;;;5062911;28;20028;-63
2024/01/21 07:16:00;;;;;;;7.68;3.53;;;;;;;;;;5059991;28;20169;-64
2024/01/21 07:18:25;;;;;;;7.18;3.55;;;;;;;;;;5059872;28;20043;-65
2024/01/21 07:20:50;;;;;;;6.75;3.65;;;;;;;;;;5054880;28;20836;-63
2024/01/21 07:23:16;;;;;;;8.70;4.03;;;;;;;;;;5052145;28;20849;-63
2024/01/21 07:25:41;;;;;;;5.35;3.00;;;;;;;;;;5052740;28;20098;-64
2024/01/21 07:28:06;;;;;;;8.40;3.65;;;;;;;;;;5055217;28;20028;-65
2024/01/21 07:30:31;;;;;;;6.20;3.28;;;;;;;;;;5055469;28;20823;-65
2024/01/21 07:32:57;;;;;;;7.45;3.65;;;;;;;;;;5056272;28;20067;-65
2024/01/21 07:35:22;;;;;;;6.55;3.17;;;;;;;;;;5054755;28;20075;-64
2024/01/21 07:37:47;;;;;;;6.68;3.30;;;;;;;;;;5048611;28;20081;-65
2024/01/21 07:40:13;;;;;;;7.60;3.83;;;;;;;;;;5048636;28;20813;-63
2024/01/21 07:42:38;;;;;;;6.65;3.80;;;;;;;;;;5053219;28;20020;-63
2024/01/21 07:45:04;;;;;;;6.13;3.13;;;;;;;;;;5051561;28;20020;-64
2024/01/21 07:47:29;;;;;;;7.07;3.50;;;;;;;;;;5040024;28;20035;-64
2024/01/21 07:49:55;;;;;;;6.93;3.20;;;;;;;;;;5050369;28;20063;-64
2024/01/21 07:52:20;;;;;;;5.63;3.08;;;;;;;;;;5047340;28;20529;-64
2024/01/21 07:54:46;;;;;;;5.88;2.92;;;;;;;;;;5053560;28;20157;-64
2024/01/21 07:57:11;;;;;;;6.53;3.50;;;;;;;;;;5049491;28;20923;-64
2024/01/21 07:59:36;;;;;;;5.93;2.97;;;;;;;;;;5038271;28;20029;-64
2024/01/21 08:02:01;;;;;;;7.20;3.97;;;;;;;;;;5046581;28;20063;-64
2024/01/21 08:04:27;;;;;;;7.78;4.15;;;;;;;;;;5046746;28;20027;-64
2024/01/21 08:06:52;;;;;;;9.68;3.67;;;;;;;;;;5038396;28;20024;-65
2024/01/21 08:09:18;;;;;;;6.47;3.55;;;;;;;;;;5044582;28;20143;-64
2024/01/21 08:11:43;;;;;;;5.55;3.45;;;;;;;;;;5045178;28;20910;-65
2024/01/21 08:14:08;;;;;;;7.95;4.22;;;;;;;;;;5047331;28;20062;-65
2024/01/21 08:16:34;;;;;;;5.55;3.10;;;;;;;;;;5047576;28;20148;-65
2024/01/21 08:18:59;;;;;;;9.13;4.18;;;;;;;;;;5084936;28;20223;-64
2024/01/21 08:21:24;;;;;;;5.90;3.22;;;;;;;;;;5086599;28;20028;-64
2024/01/21 08:23:49;;;;;;;6.43;3.47;;;;;;;;;;5088517;28;20028;-64
2024/01/21 08:26:15;;;;;;;7.43;3.97;;;;;;;;;;5085330;28;20039;-65
2024/01/21 08:28:41;;;;;;;6.50;3.55;;;;;;;;;;5085227;28;20320;-65
2024/01/21 08:31:06;;;;;;;7.40;3.50;;;;;;;;;;5089736;28;20024;-65
2024/01/21 08:33:33;;;;;;;6.22;2.67;;;;;;;;;;5083855;28;20016;-65
2024/01/21 08:35:59;;;;;;;6.18;3.33;;;;;;;;;;5086367;28;20099;-65
2024/01/21 08:38:24;;;;;;;9.38;3.47;;;;;;;;;;5064462;28;20032;-65
2024/01/21 08:40:49;;;;;;;7.78;3.78;;;;;;;;;;5086835;28;20043;-65
2024/01/21 08:43:14;;;;;;;7.07;4.10;;;;;;;;;;5085882;28;20032;-65
2024/01/21 08:45:39;;;;;;;7.32;3.95;;;;;;;;;;5077221;28;20293;-65
2024/01/21 08:48:05;;;;;;;8.77;3.60;;;;;;;;;;5071685;28;20063;-65
2024/01/21 08:50:30;;;;;;;7.70;3.70;;;;;;;;;;5085247;28;20059;-65
2024/01/21 08:52:55;;;;;;;6.00;3.20;;;;;;;;;;5064384;28;20104;-65
2024/01/21 08:55:21;;;;;;;6.22;3.47;;;;;;;;;;5077165;28;20068;-65
2024/01/21 08:57:47;;;;;;;8.45;4.13;;;;;;;;;;5084211;28;20032;-65
2024/01/21 09:00:13;;;;;;;6.50;3.45;;;;;;;;;;5055277;28;20802;-65
2024/01/21 09:02:38;;;;;;;5.72;3.53;;;;;;;;;;5085639;28;20038;-65
2024/01/21 09:05:03;;;;;;;6.90;2.95;;;;;;;;;;5083228;28;20470;-65
2024/01/21 09:07:29;;;;;;;7.63;3.78;;;;;;;;;;5067889;28;20024;-65
2024/01/21 09:09:54;;;;;;;6.90;3.63;;;;;;;;;;5084952;28;20031;-65
2024/01/21 09:12:19;;;;;;;5.77;3.40;;;;;;;;;;5083238;28;20892;-65
2024/01/21 09:14:44;;;;;;;7.10;3.58;;;;;;;;;;5086032;28;20293;-65
2024/01/21 09:17:09;;;;;;;9.13;3.85;;;;;;;;;;5060912;28;20956;-66
2024/01/21 09:19:35;;;;;;;5.78;3.17;;;;;;;;;;5050010;28;20024;-67
2024/01/21 09:22:01;;;;;;;10.07;4.15;;;;;;;;;;5080771;28;20019;-66
2024/01/21 09:24:26;;;;;;;7.53;4.07;;;;;;;;;;5091735;28;20020;-68
2024/01/21 09:26:51;;;;;;;6.50;3.60;;;;;;;;;;5069624;28;20085;-65
2024/01/21 09:29:16;;;;;;;6.32;3.67;;;;;;;;;;5081819;28;20510;-66
2024/01/21 09:31:42;;;;;;;7.07;3.45;;;;;;;;;;5080364;28;20069;-66
2024/01/21 09:34:07;;;;;;;5.75;3.47;;;;;;;;;;5078201;28;20077;-66
2024/01/21 09:36:34;;;;;;;8.07;3.70;;;;;;;;;;5065910;28;20032;-66
2024/01/21 09:39:00;;;;;;;7.45;3.78;;;;;;;;;;5080229;28;20012;-66
2024/01/21 09:41:57;;;;;;;6.63;4.00;;;;;;;;;;5090878;28;20035;-67
2024/01/21 09:44:26;;;;;;;7.57;3.92;;;;;;;;;;5030616;28;20039;-66
2024/01/21 09:46:52;;;;;;;5.88;3.35;;;;;;;;;;5052045;28;20368;-67
2024/01/21 09:49:19;;;;;;;6.82;4.00;;;;;;;;;;5080139;28;20027;-66
2024/01/21 09:51:46;;;;;;;5.88;3.40;;;;;;;;;;5081654;28;20107;-66
2024/01/21 09:54:11;;;;;;;6.97;4.18;;;;;;;;;;5072803;28;20024;-67
2024/01/21 09:56:36;;;;;;;6.13;3.80;;;;;;;;;;5090846;28;20470;-67
2024/01/21 09:59:03;;;;;;;7.95;3.55;;;;;;;;;;5082048;28;20039;-66
2024/01/21 10:01:30;;;;;;;7.32;3.85;;;;;;;;;;5083790;28;20123;-67
2024/01/21 10:03:55;;;;;;;6.97;3.40;;;;;;;;;;5075533;28;20541;-65
2024/01/21 10:06:21;;;;;;;8.10;3.92;;;;;;;;;;5086950;28;20063;-65
2024/01/21 10:08:46;;;;;;;7.28;3.67;;;;;;;;;;5090188;28;20052;-64
2024/01/21 10:11:12;;;;;;;7.00;3.75;;;;;;;;;;5089440;28;20032;-66
2024/01/21 10:13:38;;;;;;;8.43;3.80;;;;;;;;;;5068090;28;20034;-65
2024/01/21 10:16:07;;;;;;;8.50;4.00;;;;;;;;;;5077764;28;20071;-66
2024/01/21 10:18:32;;;;;;;7.03;4.00;;;;;;;;;;5074654;28;20020;-66
2024/01/21 10:20:58;;;;;;;8.30;4.20;;;;;;;;;;5089672;28;20488;-65
2024/01/21 10:23:23;;;;;;;7.40;3.65;;;;;;;;;;5090624;28;20024;-67
2024/01/21 10:25:48;;;;;;;6.75;3.63;;;;;;;;;;5081421;28;20482;-66
2024/01/21 10:28:15;;;;;;;6.50;3.53;;;;;;;;;;5057692;28;20028;-66
2024/01/21 10:30:41;;;;;;;6.93;3.92;;;;;;;;;;5085356;28;20024;-65
2024/01/21 10:33:07;;;;;;;10.27;4.15;;;;;;;;;;5072982;28;20044;-69
2024/01/21 10:35:32;;;;;;;5.85;3.45;;;;;;;;;;5070161;28;20019;-66
2024/01/21 10:37:58;;;;;;;8.43;3.83;;;;;;;;;;5080314;28;20024;-66
2024/01/21 10:40:24;;;;;;;6.15;3.40;;;;;;;;;;5069602;28;20035;-65
2024/01/21 10:42:53;;;;;;;7.18;4.05;;;;;;;;;;5050411;28;20933;-64
2024/01/21 10:45:21;;;;;;;10.50;3.50;;;;;;;;;;5052739;28;20024;-66
2024/01/21 10:47:47;;;;;;;7.32;3.40;;;;;;;;;;5076449;28;20024;-66
2024/01/21 10:50:12;;;;;;;7.45;3.95;;;;;;;;;;5077894;28;20020;-66
2024/01/21 10:52:39;;;;;;;6.00;4.13;;;;;;;;;;5074463;28;20020;-64
2024/01/21 10:55:05;;;;;;;6.85;3.60;;;;;;;;;;5077005;28;20020;-66
2024/01/21 10:57:31;;;;;;;6.57;3.92;;;;;;;;;;5081354;28;20012;-64
2024/01/21 10:59:57;;;;;;;8.68;3.58;;;;;;;;;;5085385;28;20668;-64
2024/01/21 11:02:22;;;;;;;6.10;3.08;;;;;;;;;;5075499;28;20443;-65
2024/01/21 11:04:47;;;;;;;7.05;3.35;;;;;;;;;;5064023;28;20027;-65
2024/01/21 11:07:13;;;;;;;6.13;3.77;;;;;;;;;;5080859;28;20046;-66
2024/01/21 11:09:39;;;;;;;8.20;3.45;;;;;;;;;;5089998;28;20297;-66
2024/01/21 11:12:04;;;;;;;6.28;3.72;;;;;;;;;;5089642;28;20031;-65
2024/01/21 11:14:33;;;;;;;6.97;3.92;;;;;;;;;;5074012;28;20028;-65
2024/01/21 11:17:03;;;;;;;8.18;3.40;;;;;;;;;;5090135;28;20027;-66
2024/01/21 11:19:43;;;;;;;6.68;3.50;;;;;;;;;;5089525;28;20087;-65
2024/01/21 11:22:09;;;;;;;5.78;3.25;;;;;;;;;;5094488;28;20024;-64
2024/01/21 11:24:36;;;;;;;6.68;3.85;;;;;;;;;;5081503;28;20459;-64
2024/01/21 11:27:01;;;;;;;6.57;3.05;;;;;;;;;;5091477;28;20447;-65
2024/01/21 11:29:31;;;;;;;6.88;3.55;;;;;;;;;;5094436;28;20039;-65
2024/01/21 11:31:56;;;;;;;7.50;3.85;;;;;;;;;;5092517;28;20131;-64
2024/01/21 11:34:24;;;;;;;6.23;3.40;;;;;;;;;;5094645;28;20119;-64
2024/01/21 11:36:50;;;;;;;8.98;3.55;;;;;;;;;;5077040;28;20273;-63
2024/01/21 11:39:15;;;;;;;9.13;3.80;;;;;;;;;;5086756;28;20055;-63
2024/01/21 11:41:41;;;;;;;8.68;4.05;;;;;;;;;;5079593;28;20055;-63
2024/01/21 11:44:26;;;;;;;5.05;3.40;;;;;;;;;;5088267;28;20059;-63
2024/01/21 11:46:55;;;;;;;6.82;4.18;;;;;;;;;;5080690;28;20028;-63
2024/01/21 11:49:21;;;;;;;5.53;3.35;;;;;;;;;;5093394;28;20024;-65
2024/01/21 11:51:46;;;;;;;6.72;4.00;;;;;;;;;;5094483;28;20107;-66
2024/01/21 11:54:12;;;;;;;5.22;3.30;;;;;;;;;;5084754;28;20035;-65
2024/01/21 11:56:37;;;;;;;7.95;4.22;;;;;;;;;;5087589;28;20031;-65
2024/01/21 11:59:06;;;;;;;7.93;3.45;;;;;;;;;;5084147;28;20024;-63
2024/01/21 12:01:33;;;;;;;6.78;3.65;;;;;;;;;;5056183;28;20081;-65
2024/01/21 12:04:00;;;;;;;9.70;3.60;;;;;;;;;;5079034;28;20139;-66
2024/01/21 12:06:25;;;;;;;8.27;3.67;;;;;;;;;;5087425;28;20541;-63
2024/01/21 12:08:51;;;;;;;6.60;3.47;;;;;;;;;;5082372;28;20127;-64
2024/01/21 12:11:16;;;;;;;5.60;3.38;;;;;;;;;;5049714;28;20024;-64
2024/01/21 12:13:45;;;;;;;6.88;3.50;;;;;;;;;;5061625;28;20032;-64
2024/01/21 12:16:11;;;;;;;5.55;3.15;;;;;;;;;;5074611;28;20032;-64
2024/01/21 12:18:39;;;;;;;9.32;3.92;;;;;;;;;;5071487;28;20039;-63
2024/01/21 12:21:05;;;;;;;7.45;4.00;;;;;;;;;;5076089;28;20417;-64
2024/01/21 12:23:31;;;;;;;8.32;4.13;;;;;;;;;;5082758;28;20078;-63
2024/01/21 12:25:56;;;;;;;6.97;3.60;;;;;;;;;;5087483;28;20504;-63
2024/01/21 12:28:21;;;;;;;9.73;3.58;;;;;;;;;;5058177;28;20389;-64
2024/01/21 12:30:47;;;;;;;7.07;3.63;;;;;;;;;;5077459;28;20447;-64
2024/01/21 12:33:12;;;;;;;6.68;3.63;;;;;;;;;;5064838;28;20039;-64
2024/01/21 12:35:37;;;;;;;5.88;3.63;;;;;;;;;;5077884;28;20024;-65
2024/01/21 12:38:03;;;;;;;6.10;3.45;;;;;;;;;;5070354;28;20028;-64
2024/01/21 12:40:28;;;;;;;6.60;3.83;;;;;;;;;;5069967;28;20020;-64
2024/01/21 12:42:54;;;;;;;5.72;3.58;;;;;;;;;;5078304;28;20499;-65
2024/01/21 12:45:19;;;;;;;6.20;3.80;;;;;;;;;;5076733;28;20031;-66
2024/01/21 12:47:44;;;;;;;6.18;3.63;;;;;;;;;;5089832;28;20027;-64
2024/01/21 12:50:10;;;;;;;5.30;2.97;;;;;;;;;;5081188;28;20061;-63
2024/01/21 12:52:36;;;;;;;5.80;3.15;;;;;;;;;;5080642;28;20039;-64
2024/01/21 12:55:01;;;;;;;5.47;3.10;;;;;;;;;;5092057;28;20106;-66
2024/01/21 12:57:27;;;;;;;7.10;3.65;;;;;;;;;;5092670;28;20054;-65
2024/01/21 12:59:52;;;;;;;5.85;3.40;;;;;;;;;;5086594;28;20477;-64
2024/01/21 13:02:17;;;;;;;6.67;3.43;;;;;;;;;;5091343;28;20430;-65
2024/01/21 13:04:43;;;;;;;6.88;3.45;;;;;;;;;;5091476;28;20686;-64
2024/01/21 13:07:08;;;;;;;7.07;4.07;;;;;;;;;;5053767;28;20020;-65
2024/01/21 13:09:33;;;;;;;7.40;3.33;;;;;;;;;;5038942;28;20028;-64
2024/01/21 13:11:58;;;;;;;6.20;3.30;;;;;;;;;;5045052;28;20289;-65
2024/01/21 13:14:23;;;;;;;6.93;4.00;;;;;;;;;;5046551;28;20381;-64
2024/01/21 13:16:49;;;;;;;5.82;3.75;;;;;;;;;;5047113;28;20024;-65
2024/01/21 13:19:14;;;;;;;7.60;3.53;;;;;;;;;;5046810;28;20956;-64
2024/01/21 13:21:40;;;;;;;6.10;3.28;;;;;;;;;;5046291;28;20032;-64
2024/01/21 13:24:05;;;;;;;5.97;3.33;;;;;;;;;;5044372;28;20047;-64
2024/01/21 13:26:30;;;;;;;6.40;2.90;;;;;;;;;;5047372;28;20051;-66
2024/01/21 13:31:34;;;;;;;7.53;3.03;;;;;;;;;;5050686;28;20398;-66
2024/01/21 13:34:01;;;;;;;5.88;3.40;;;;;;;;;;5045466;28;20025;-65
2024/01/21 13:36:26;;;;;;;5.35;3.30;;;;;;;;;;5045276;28;20925;-63
2024/01/21 13:38:51;;;;;;;6.63;3.88;;;;;;;;;;5043460;28;20012;-63
2024/01/21 13:41:17;;;;;;;7.90;3.70;;;;;;;;;;5036718;28;20058;-64
2024/01/21 13:43:42;;;;;;;7.53;3.75;;;;;;;;;;5039963;28;20048;-63
2024/01/21 13:46:07;;;;;;;6.00;3.30;;;;;;;;;;5047780;28;20060;-64
2024/01/21 13:48:33;;;;;;;6.75;4.25;;;;;;;;;;5042721;28;20020;-64
2024/01/21 13:50:58;;;;;;;6.22;3.55;;;;;;;;;;5044941;28;20030;-64
2024/01/21 13:53:23;;;;;;;6.78;3.90;;;;;;;;;;5027686;28;20048;-64
2024/01/21 13:55:48;;;;;;;6.25;3.55;;;;;;;;;;5046883;28;20901;-63
2024/01/21 13:58:19;;;;;;;8.23;3.80;;;;;;;;;;5018074;28;20089;-63
2024/01/21 14:00:44;;;;;;;6.38;3.80;;;;;;;;;;5042214;28;20081;-63
2024/01/21 14:03:10;;;;;;;8.85;4.50;;;;;;;;;;5045206;28;20907;-63
2024/01/21 14:05:38;;;;;;;6.22;3.08;;;;;;;;;;5053758;28;20039;-63
2024/01/21 14:08:03;;;;;;;6.57;4.03;;;;;;;;;;5087284;28;20032;-63
2024/01/21 14:10:29;;;;;;;6.82;4.55;;;;;;;;;;5087671;28;20037;-63
2024/01/21 14:12:54;;;;;;;7.35;4.20;;;;;;;;;;5075910;28;20127;-63
2024/01/21 14:15:20;;;;;;;6.30;3.88;;;;;;;;;;5064715;28;20035;-63
2024/01/21 14:17:45;;;;;;;6.57;3.75;;;;;;;;;;5076143;28;20561;-64
2024/01/21 14:20:13;;;;;;;7.17;4.10;;;;;;;;;;5089298;28;20066;-63
2024/01/21 14:22:39;;;;;;;8.35;4.45;;;;;;;;;;5084552;28;20297;-63
2024/01/21 14:25:05;;;;;;;6.82;4.18;;;;;;;;;;5089258;28;20050;-62
2024/01/21 14:27:31;;;;;;;6.45;3.72;;;;;;;;;;5089135;28;20804;-62
2024/01/21 14:30:16;;;;;;;7.10;3.65;;;;;;;;;;5067543;28;20017;-62
2024/01/21 14:32:41;;;;;;;9.13;4.03;;;;;;;;;;5048603;28;20019;-62
2024/01/21 14:35:07;;;;;;;6.50;3.53;;;;;;;;;;5049096;28;20028;-62
2024/01/21 14:37:32;;;;;;;6.70;4.22;;;;;;;;;;5047391;28;20922;-62